Time;durP1;ratioP1;P1;durP2;ratioP2;P2;SDS_P1;SDS_P2;PMS_P1;PMS_P2;Temp;Humidity;BMP_temperature;BMP_pressure;BME280_temperature;BME280_humidity;BME280_pressure;Samples;Min_cycle;Max_cycle;Signal;HPM_P1;HPM_P2
2023/03/08 00:00:33;;;;;;;11.77;6.88;;;;;;;;;;4983807;28;20385;-72
2023/03/08 00:02:59;;;;;;;14.00;5.63;;;;;;;;;;4985082;28;20527;-73
2023/03/08 00:05:24;;;;;;;13.32;7.35;;;;;;;;;;4989472;28;20684;-73
2023/03/08 00:07:53;;;;;;;9.13;6.22;;;;;;;;;;4980838;28;20046;-77
2023/03/08 00:10:19;;;;;;;10.77;7.78;;;;;;;;;;4987079;28;20050;-75
2023/03/08 00:12:45;;;;;;;9.10;6.03;;;;;;;;;;4969501;28;20100;-74
2023/03/08 00:15:10;;;;;;;7.20;5.30;;;;;;;;;;4979610;28;20484;-74
2023/03/08 00:17:37;;;;;;;12.77;7.20;;;;;;;;;;4988248;28;20056;-73
2023/03/08 00:20:09;;;;;;;9.52;6.07;;;;;;;;;;4987837;28;20045;-74
2023/03/08 00:22:36;;;;;;;9.40;5.53;;;;;;;;;;4990247;28;20492;-73
2023/03/08 00:25:02;;;;;;;12.57;9.20;;;;;;;;;;4980098;28;20077;-73
2023/03/08 00:27:27;;;;;;;8.77;6.43;;;;;;;;;;4980482;28;20086;-76
2023/03/08 00:29:52;;;;;;;4.75;3.35;;;;;;;;;;4985364;28;20038;-74
2023/03/08 00:32:18;;;;;;;6.05;4.55;;;;;;;;;;4964297;28;20061;-74
2023/03/08 00:34:45;;;;;;;11.20;7.20;;;;;;;;;;4987468;28;20091;-73
2023/03/08 00:37:12;;;;;;;8.50;4.53;;;;;;;;;;4985648;28;20474;-75
2023/03/08 00:39:37;;;;;;;7.13;4.60;;;;;;;;;;4982493;28;20054;-73
2023/03/08 00:42:04;;;;;;;7.75;4.95;;;;;;;;;;4981323;28;20054;-74
2023/03/08 00:44:29;;;;;;;16.23;5.88;;;;;;;;;;4962220;28;20975;-75
2023/03/08 00:46:55;;;;;;;11.23;6.35;;;;;;;;;;4963036;28;20076;-73
2023/03/08 00:49:21;;;;;;;11.88;7.72;;;;;;;;;;4968657;28;20252;-73
2023/03/08 00:51:47;;;;;;;11.13;7.25;;;;;;;;;;4966966;28;20030;-72
2023/03/08 00:54:14;;;;;;;14.25;5.47;;;;;;;;;;4989341;28;20038;-70
2023/03/08 00:56:40;;;;;;;8.27;4.50;;;;;;;;;;4976489;28;20069;-71
2023/03/08 00:59:06;;;;;;;6.55;5.13;;;;;;;;;;4976117;28;20088;-72
2023/03/08 01:01:31;;;;;;;5.25;3.40;;;;;;;;;;4994646;28;20533;-73
2023/03/08 01:03:57;;;;;;;11.82;6.40;;;;;;;;;;4995560;28;20409;-70
2023/03/08 01:06:22;;;;;;;10.30;7.25;;;;;;;;;;4992196;28;20153;-72
2023/03/08 01:08:48;;;;;;;11.20;6.28;;;;;;;;;;4970525;28;20182;-72
2023/03/08 01:11:16;;;;;;;8.77;5.50;;;;;;;;;;4966709;28;20129;-71
2023/03/08 01:13:41;;;;;;;10.85;7.03;;;;;;;;;;4984088;28;20409;-73
2023/03/08 01:16:23;;;;;;;13.65;7.05;;;;;;;;;;4964731;28;20504;-71
2023/03/08 01:18:50;;;;;;;9.02;6.22;;;;;;;;;;4984369;28;20104;-71
2023/03/08 01:21:18;;;;;;;11.20;6.55;;;;;;;;;;4966260;28;20157;-71
2023/03/08 01:23:43;;;;;;;9.45;5.63;;;;;;;;;;4969724;28;20416;-76
2023/03/08 01:26:15;;;;;;;7.45;4.78;;;;;;;;;;4983112;28;20061;-72
2023/03/08 01:28:41;;;;;;;8.20;6.37;;;;;;;;;;4984096;28;20042;-73
2023/03/08 01:31:11;;;;;;;9.02;4.15;;;;;;;;;;4966332;28;20673;-74
2023/03/08 01:33:40;;;;;;;10.20;5.60;;;;;;;;;;4968121;28;20843;-73
2023/03/08 01:36:07;;;;;;;4.50;3.17;;;;;;;;;;4975137;28;20052;-73
2023/03/08 01:38:33;;;;;;;6.55;4.53;;;;;;;;;;4989659;28;20051;-73
2023/03/08 01:41:00;;;;;;;6.60;4.20;;;;;;;;;;4989098;28;20081;-71
2023/03/08 01:43:37;;;;;;;5.28;3.10;;;;;;;;;;4972396;28;20054;-72
2023/03/08 01:46:04;;;;;;;11.13;4.10;;;;;;;;;;4965152;28;20052;-76
2023/03/08 01:48:34;;;;;;;6.90;4.75;;;;;;;;;;4970141;28;20125;-70
2023/03/08 01:51:05;;;;;;;10.98;4.78;;;;;;;;;;4969747;28;20035;-75
2023/03/08 01:53:32;;;;;;;6.43;4.03;;;;;;;;;;4973160;28;20072;-72
2023/03/08 01:55:58;;;;;;;10.80;5.35;;;;;;;;;;4990912;28;20050;-72
2023/03/08 01:58:24;;;;;;;5.93;3.72;;;;;;;;;;4973637;28;20042;-71
2023/03/08 02:00:50;;;;;;;3.75;3.25;;;;;;;;;;4968820;28;20689;-72
2023/03/08 02:03:16;;;;;;;5.38;3.90;;;;;;;;;;4965191;28;20552;-73
2023/03/08 02:05:42;;;;;;;10.60;5.50;;;;;;;;;;4967707;28;20566;-70
2023/03/08 02:08:18;;;;;;;10.50;5.50;;;;;;;;;;4964995;28;20046;-71
2023/03/08 02:10:44;;;;;;;11.82;6.47;;;;;;;;;;4967534;28;20046;-72
2023/03/08 02:13:10;;;;;;;11.23;6.70;;;;;;;;;;4979008;28;20050;-71
2023/03/08 02:15:39;;;;;;;12.07;6.25;;;;;;;;;;4964272;28;20466;-71
2023/03/08 02:18:05;;;;;;;11.27;6.28;;;;;;;;;;4965198;28;20070;-75
2023/03/08 02:20:31;;;;;;;13.05;5.70;;;;;;;;;;4965181;28;20120;-72
2023/03/08 02:23:12;;;;;;;14.60;6.38;;;;;;;;;;4982679;28;20476;-74
2023/03/08 02:25:46;;;;;;;14.75;6.38;;;;;;;;;;4981830;28;20049;-72
2023/03/08 02:28:11;;;;;;;11.10;6.65;;;;;;;;;;4984073;28;22364;-72
2023/03/08 02:30:37;;;;;;;11.73;5.90;;;;;;;;;;4968988;28;20504;-72
2023/03/08 02:33:02;;;;;;;8.73;5.95;;;;;;;;;;4984280;28;20068;-72
2023/03/08 02:35:29;;;;;;;9.90;5.82;;;;;;;;;;4982691;28;20100;-71
2023/03/08 02:37:54;;;;;;;12.75;5.85;;;;;;;;;;4987321;28;20480;-71
2023/03/08 02:40:20;;;;;;;13.88;6.80;;;;;;;;;;4992225;28;20133;-73
2023/03/08 02:42:46;;;;;;;8.98;5.65;;;;;;;;;;4968043;28;20053;-71
2023/03/08 02:45:11;;;;;;;11.88;5.43;;;;;;;;;;4983794;28;20042;-73
2023/03/08 02:47:41;;;;;;;11.82;6.72;;;;;;;;;;4984177;28;20046;-74
2023/03/08 02:50:07;;;;;;;12.63;7.43;;;;;;;;;;4975165;28;20045;-71
2023/03/08 02:52:33;;;;;;;12.48;6.43;;;;;;;;;;4989592;28;20448;-72
2023/03/08 02:54:58;;;;;;;12.05;6.70;;;;;;;;;;4966061;28;20034;-71
2023/03/08 02:57:24;;;;;;;14.10;7.45;;;;;;;;;;4969645;28;20125;-70
2023/03/08 02:59:51;;;;;;;13.75;7.25;;;;;;;;;;4975644;28;20049;-70
2023/03/08 03:02:16;;;;;;;13.43;7.00;;;;;;;;;;4981932;28;20124;-70
2023/03/08 03:04:42;;;;;;;16.63;7.82;;;;;;;;;;4993892;28;20050;-73
2023/03/08 03:07:07;;;;;;;14.57;7.15;;;;;;;;;;4974573;28;20516;-70
2023/03/08 03:09:34;;;;;;;11.68;7.43;;;;;;;;;;4972716;28;20054;-73
2023/03/08 03:12:00;;;;;;;18.25;8.40;;;;;;;;;;4989454;28;20120;-72
2023/03/08 03:14:27;;;;;;;14.23;7.15;;;;;;;;;;4963897;28;20703;-71
2023/03/08 03:16:53;;;;;;;14.35;7.95;;;;;;;;;;4964182;28;20493;-72
2023/03/08 03:19:19;;;;;;;13.13;7.28;;;;;;;;;;4963985;28;20038;-72
2023/03/08 03:21:44;;;;;;;14.73;7.05;;;;;;;;;;4963400;28;20137;-71
2023/03/08 03:24:10;;;;;;;10.70;6.65;;;;;;;;;;4969531;28;20075;-71
2023/03/08 03:26:50;;;;;;;11.40;5.60;;;;;;;;;;4969149;28;20037;-70
2023/03/08 03:29:16;;;;;;;15.27;6.63;;;;;;;;;;4989587;28;20446;-70
2023/03/08 03:31:44;;;;;;;11.57;7.20;;;;;;;;;;4967060;28;20078;-70
2023/03/08 03:34:10;;;;;;;12.57;7.22;;;;;;;;;;4989419;28;20181;-70
2023/03/08 03:36:37;;;;;;;13.52;7.75;;;;;;;;;;4976296;28;20106;-70
2023/03/08 03:39:03;;;;;;;13.25;7.70;;;;;;;;;;4973470;28;20148;-73
2023/03/08 03:41:30;;;;;;;14.35;7.38;;;;;;;;;;4972467;28;20173;-74
2023/03/08 03:44:01;;;;;;;16.95;8.02;;;;;;;;;;4971676;28;20141;-72
2023/03/08 03:46:28;;;;;;;11.65;7.45;;;;;;;;;;4966644;28;20054;-72
2023/03/08 03:48:56;;;;;;;13.77;7.50;;;;;;;;;;4969724;28;20068;-73
2023/03/08 03:51:23;;;;;;;13.82;6.70;;;;;;;;;;4964525;28;20097;-71
2023/03/08 03:53:57;;;;;;;15.93;7.78;;;;;;;;;;4962572;28;20042;-73
2023/03/08 03:56:25;;;;;;;15.00;8.02;;;;;;;;;;4970781;28;20053;-73
2023/03/08 03:58:54;;;;;;;15.48;7.40;;;;;;;;;;4970259;28;20042;-74
2023/03/08 04:01:28;;;;;;;14.68;7.45;;;;;;;;;;4974387;28;20064;-70
2023/03/08 04:03:59;;;;;;;13.65;6.10;;;;;;;;;;4978483;28;20038;-72
2023/03/08 04:06:28;;;;;;;16.00;8.00;;;;;;;;;;4963344;28;20046;-71
2023/03/08 04:08:57;;;;;;;12.40;6.68;;;;;;;;;;4964171;28;20187;-72
2023/03/08 04:11:26;;;;;;;13.00;7.10;;;;;;;;;;4966476;28;20078;-70
2023/03/08 04:13:53;;;;;;;18.30;8.15;;;;;;;;;;4971298;28;20108;-73
2023/03/08 04:16:23;;;;;;;15.18;7.63;;;;;;;;;;4976475;28;20409;-71
2023/03/08 04:18:55;;;;;;;15.75;8.30;;;;;;;;;;4964423;28;20050;-71
2023/03/08 04:21:21;;;;;;;16.52;9.00;;;;;;;;;;4969010;28;20046;-73
2023/03/08 04:23:47;;;;;;;14.98;7.85;;;;;;;;;;4982402;28;20083;-71
2023/03/08 04:26:13;;;;;;;14.63;8.15;;;;;;;;;;4962613;28;20070;-74
2023/03/08 04:28:39;;;;;;;12.15;7.53;;;;;;;;;;4967687;28;20851;-70
2023/03/08 04:31:17;;;;;;;13.77;7.75;;;;;;;;;;4968974;28;20146;-73
2023/03/08 04:33:43;;;;;;;14.73;7.70;;;;;;;;;;4989112;28;20034;-72
2023/03/08 04:36:08;;;;;;;14.45;7.40;;;;;;;;;;4978222;28;20038;-69
2023/03/08 04:38:35;;;;;;;14.50;8.07;;;;;;;;;;4991199;28;20463;-70
2023/03/08 04:41:09;;;;;;;13.40;7.13;;;;;;;;;;4972468;28;20082;-69
2023/03/08 04:43:44;;;;;;;17.27;8.50;;;;;;;;;;4970989;28;20050;-69
2023/03/08 04:46:10;;;;;;;17.55;8.35;;;;;;;;;;4970573;28;20042;-69
2023/03/08 04:48:37;;;;;;;16.58;8.18;;;;;;;;;;4972781;28;20076;-69
2023/03/08 04:51:06;;;;;;;13.95;7.53;;;;;;;;;;4971008;28;20064;-69
2023/03/08 04:53:31;;;;;;;16.55;7.60;;;;;;;;;;4966810;28;20525;-72
2023/03/08 04:56:00;;;;;;;16.23;7.75;;;;;;;;;;4973923;28;20057;-72
2023/03/08 04:58:28;;;;;;;19.88;8.27;;;;;;;;;;4964116;28;20133;-72
2023/03/08 05:00:54;;;;;;;18.17;8.10;;;;;;;;;;4968320;28;20104;-71
2023/03/08 05:03:20;;;;;;;16.63;8.10;;;;;;;;;;4992756;28;20070;-72
2023/03/08 05:05:47;;;;;;;20.33;8.90;;;;;;;;;;4976087;28;20072;-71
2023/03/08 05:08:13;;;;;;;22.08;8.80;;;;;;;;;;4967992;28;22950;-71
2023/03/08 05:10:39;;;;;;;16.95;9.02;;;;;;;;;;4973817;28;20475;-76
2023/03/08 05:13:06;;;;;;;20.58;8.82;;;;;;;;;;4967477;28;20456;-72
2023/03/08 05:15:31;;;;;;;13.93;7.95;;;;;;;;;;4985714;28;20038;-74
2023/03/08 05:17:56;;;;;;;17.48;9.23;;;;;;;;;;4967083;28;20046;-74
2023/03/08 05:20:22;;;;;;;15.50;7.55;;;;;;;;;;4975602;28;20133;-74
2023/03/08 05:22:49;;;;;;;15.77;9.00;;;;;;;;;;4973825;28;20166;-73
2023/03/08 05:25:15;;;;;;;19.65;10.07;;;;;;;;;;4981854;28;20046;-73
2023/03/08 05:27:40;;;;;;;19.55;8.77;;;;;;;;;;4969729;28;20057;-72
2023/03/08 05:30:08;;;;;;;14.73;8.25;;;;;;;;;;4971313;28;20520;-74
2023/03/08 05:32:34;;;;;;;13.80;8.00;;;;;;;;;;4967231;28;20038;-73
2023/03/08 05:34:59;;;;;;;19.05;9.70;;;;;;;;;;4989862;28;20694;-73
2023/03/08 05:37:31;;;;;;;19.65;10.38;;;;;;;;;;4970276;28;20652;-74
2023/03/08 05:40:00;;;;;;;18.40;9.77;;;;;;;;;;4970588;28;20038;-75
2023/03/08 05:42:26;;;;;;;20.02;10.27;;;;;;;;;;4967220;28;20053;-76
2023/03/08 05:44:52;;;;;;;19.00;9.75;;;;;;;;;;4968382;28;20038;-75
2023/03/08 05:47:24;;;;;;;17.63;9.77;;;;;;;;;;4971387;28;20042;-74
2023/03/08 05:49:50;;;;;;;17.70;10.48;;;;;;;;;;4994518;28;21256;-71
2023/03/08 05:52:16;;;;;;;18.70;10.35;;;;;;;;;;4972691;28;20041;-79
2023/03/08 05:54:42;;;;;;;19.27;10.55;;;;;;;;;;4970863;28;20101;-75
2023/03/08 05:57:13;;;;;;;18.52;10.18;;;;;;;;;;4971725;28;20046;-73
2023/03/08 05:59:39;;;;;;;20.95;10.40;;;;;;;;;;4977374;28;20056;-72
2023/03/08 06:02:06;;;;;;;22.55;10.68;;;;;;;;;;4973906;28;20073;-73
2023/03/08 06:04:45;;;;;;;20.02;10.70;;;;;;;;;;4988403;28;20180;-71
2023/03/08 06:07:13;;;;;;;29.73;11.07;;;;;;;;;;4968120;28;20501;-71
2023/03/08 06:09:44;;;;;;;18.85;10.90;;;;;;;;;;4981776;28;20409;-71
2023/03/08 06:12:13;;;;;;;23.77;10.55;;;;;;;;;;4969604;28;20110;-73
2023/03/08 06:14:38;;;;;;;18.35;10.18;;;;;;;;;;4972070;28;20035;-70
2023/03/08 06:17:05;;;;;;;21.08;10.77;;;;;;;;;;4981356;28;20037;-72
2023/03/08 06:19:33;;;;;;;20.42;10.70;;;;;;;;;;4979014;28;20572;-73
2023/03/08 06:21:59;;;;;;;20.80;11.00;;;;;;;;;;4969247;28;20046;-70
2023/03/08 06:24:26;;;;;;;17.55;10.10;;;;;;;;;;4968982;28;20531;-72
2023/03/08 06:26:54;;;;;;;18.00;9.95;;;;;;;;;;4971178;28;20038;-73
2023/03/08 06:29:20;;;;;;;20.67;10.60;;;;;;;;;;4963415;28;20039;-70
2023/03/08 06:31:45;;;;;;;26.90;11.10;;;;;;;;;;4983440;28;20048;-72
2023/03/08 06:34:14;;;;;;;21.40;10.57;;;;;;;;;;4970257;28;20058;-71
2023/03/08 06:36:41;;;;;;;21.88;10.30;;;;;;;;;;4972009;28;20046;-70
2023/03/08 06:39:07;;;;;;;23.00;10.43;;;;;;;;;;4980768;28;20042;-71
2023/03/08 06:41:32;;;;;;;19.05;10.27;;;;;;;;;;4993163;28;20048;-72
2023/03/08 06:44:00;;;;;;;19.00;10.73;;;;;;;;;;4963209;28;20058;-71
2023/03/08 06:46:26;;;;;;;20.25;10.40;;;;;;;;;;4986540;28;20049;-71
2023/03/08 06:48:53;;;;;;;17.60;9.93;;;;;;;;;;4975101;28;20167;-71
2023/03/08 06:51:19;;;;;;;24.85;9.95;;;;;;;;;;4972064;28;20069;-70
2023/03/08 06:53:46;;;;;;;18.50;10.52;;;;;;;;;;4975143;28;20115;-70
2023/03/08 06:56:15;;;;;;;20.45;11.07;;;;;;;;;;4971634;28;20144;-73
2023/03/08 06:58:41;;;;;;;19.75;10.23;;;;;;;;;;4987457;28;20082;-74
2023/03/08 07:01:08;;;;;;;21.60;11.23;;;;;;;;;;4976420;28;20639;-73
2023/03/08 07:03:35;;;;;;;21.25;10.82;;;;;;;;;;4990366;28;20054;-73
2023/03/08 07:06:03;;;;;;;19.98;11.40;;;;;;;;;;4991894;28;20086;-73
2023/03/08 07:08:29;;;;;;;19.23;10.13;;;;;;;;;;4992237;28;20408;-70
2023/03/08 07:10:55;;;;;;;25.02;11.18;;;;;;;;;;4990788;28;20129;-72
2023/03/08 07:13:22;;;;;;;21.33;10.70;;;;;;;;;;4993968;28;20137;-70
2023/03/08 07:15:48;;;;;;;20.40;11.25;;;;;;;;;;4989874;28;20042;-73
2023/03/08 07:18:14;;;;;;;23.08;10.57;;;;;;;;;;4968850;28;20058;-71
2023/03/08 07:20:39;;;;;;;18.20;10.93;;;;;;;;;;4981737;28;20104;-71
2023/03/08 07:23:05;;;;;;;19.77;10.32;;;;;;;;;;4988101;28;20049;-70
2023/03/08 07:25:30;;;;;;;19.92;11.57;;;;;;;;;;4978512;28;20077;-74
2023/03/08 07:28:08;;;;;;;18.63;11.57;;;;;;;;;;4985709;28;20527;-69
2023/03/08 07:30:34;;;;;;;20.55;10.75;;;;;;;;;;4986690;28;20050;-70
2023/03/08 07:32:59;;;;;;;19.27;11.43;;;;;;;;;;4988364;28;20042;-72
2023/03/08 07:35:25;;;;;;;21.55;11.73;;;;;;;;;;4986828;28;20046;-73
2023/03/08 07:37:51;;;;;;;21.98;11.73;;;;;;;;;;4991272;28;20045;-70
2023/03/08 07:40:17;;;;;;;23.02;11.40;;;;;;;;;;4993777;28;20054;-70
2023/03/08 07:42:43;;;;;;;20.30;11.50;;;;;;;;;;4988277;28;20046;-70
2023/03/08 07:45:23;;;;;;;28.05;12.43;;;;;;;;;;4983701;28;20153;-69
2023/03/08 07:47:52;;;;;;;20.92;11.40;;;;;;;;;;4989164;28;20113;-72
2023/03/08 07:50:18;;;;;;;20.85;11.80;;;;;;;;;;4987397;28;20129;-73
2023/03/08 07:52:44;;;;;;;30.52;13.15;;;;;;;;;;4983589;28;20050;-74
2023/03/08 07:55:10;;;;;;;27.13;12.68;;;;;;;;;;4991901;28;20049;-73
2023/03/08 07:57:35;;;;;;;25.08;11.55;;;;;;;;;;4980612;28;20042;-70
2023/03/08 08:00:06;;;;;;;23.35;12.13;;;;;;;;;;4984304;28;20413;-74
2023/03/08 08:02:37;;;;;;;22.75;11.25;;;;;;;;;;4979702;28;20058;-71
2023/03/08 08:05:04;;;;;;;17.30;10.93;;;;;;;;;;4983309;28;20050;-70
2023/03/08 08:07:30;;;;;;;19.90;11.35;;;;;;;;;;4982735;28;20101;-70
2023/03/08 08:09:55;;;;;;;20.85;10.70;;;;;;;;;;4992126;28;20491;-72
2023/03/08 08:12:22;;;;;;;20.25;10.73;;;;;;;;;;4982186;28;20107;-72
2023/03/08 08:14:50;;;;;;;21.85;11.60;;;;;;;;;;4988434;28;20076;-70
2023/03/08 08:17:17;;;;;;;25.50;12.30;;;;;;;;;;4986164;28;20046;-70
2023/03/08 08:19:43;;;;;;;25.27;11.52;;;;;;;;;;4982464;28;20718;-71
2023/03/08 08:22:08;;;;;;;21.80;11.43;;;;;;;;;;4980975;28;20058;-71
2023/03/08 08:24:34;;;;;;;22.48;12.07;;;;;;;;;;4985197;28;20045;-68
2023/03/08 08:30:25;;;;;;;19.05;11.48;;;;;;;;;;4983012;28;20042;-70
2023/03/08 08:32:50;;;;;;;19.23;11.45;;;;;;;;;;4986304;28;20035;-70
2023/03/08 08:35:16;;;;;;;22.67;11.38;;;;;;;;;;4978543;28;20460;-70
2023/03/08 08:37:41;;;;;;;23.02;11.80;;;;;;;;;;4981389;28;20510;-70
2023/03/08 08:40:09;;;;;;;19.90;11.02;;;;;;;;;;4986201;28;20141;-75
2023/03/08 08:42:34;;;;;;;21.35;11.40;;;;;;;;;;4984969;28;20072;-73
2023/03/08 08:44:59;;;;;;;18.75;11.65;;;;;;;;;;4986192;28;20349;-71
2023/03/08 08:47:27;;;;;;;21.50;11.18;;;;;;;;;;4988318;28;20042;-74
2023/03/08 08:49:53;;;;;;;17.38;10.90;;;;;;;;;;4983916;28;20611;-72
2023/03/08 08:52:18;;;;;;;19.35;9.85;;;;;;;;;;4985210;28;20077;-72
2023/03/08 08:54:44;;;;;;;17.60;9.88;;;;;;;;;;4990134;28;20038;-71
2023/03/08 08:57:09;;;;;;;21.10;10.23;;;;;;;;;;4992533;28;20050;-70
2023/03/08 08:59:34;;;;;;;15.77;10.15;;;;;;;;;;4984674;28;20081;-72
2023/03/08 09:02:00;;;;;;;18.27;10.80;;;;;;;;;;4985423;28;20069;-70
2023/03/08 09:04:26;;;;;;;15.77;9.80;;;;;;;;;;4986355;28;20052;-70
2023/03/08 09:06:52;;;;;;;16.35;8.35;;;;;;;;;;4981866;28;20073;-72
2023/03/08 09:09:18;;;;;;;16.33;8.38;;;;;;;;;;4981752;28;20073;-70
2023/03/08 09:11:43;;;;;;;13.23;9.02;;;;;;;;;;4991640;28;20124;-72
2023/03/08 09:14:08;;;;;;;14.73;9.50;;;;;;;;;;4984157;28;20532;-71
2023/03/08 09:16:34;;;;;;;18.13;9.70;;;;;;;;;;4987414;28;20050;-71
2023/03/08 09:19:02;;;;;;;19.52;10.50;;;;;;;;;;4994098;28;20045;-71
2023/03/08 09:21:29;;;;;;;19.02;9.70;;;;;;;;;;4994258;28;20156;-72
2023/03/08 09:23:58;;;;;;;18.35;10.88;;;;;;;;;;4989086;28;20078;-72
2023/03/08 09:26:24;;;;;;;18.92;12.00;;;;;;;;;;4984795;28;20057;-73
2023/03/08 09:28:49;;;;;;;21.25;11.02;;;;;;;;;;4983653;28;20074;-75
2023/03/08 09:31:16;;;;;;;18.08;10.68;;;;;;;;;;4984290;28;20108;-69
2023/03/08 09:33:47;;;;;;;17.15;10.20;;;;;;;;;;4992110;28;20108;-71
2023/03/08 09:36:13;;;;;;;19.77;11.23;;;;;;;;;;4982295;28;20057;-70
2023/03/08 09:38:39;;;;;;;16.35;9.73;;;;;;;;;;4982583;28;20058;-71
2023/03/08 09:41:20;;;;;;;21.70;11.63;;;;;;;;;;4982598;28;20042;-71
2023/03/08 09:44:25;;;;;;;17.50;10.43;;;;;;;;;;4980253;28;20141;-71
2023/03/08 09:47:04;;;;;;;19.30;10.02;;;;;;;;;;4967722;28;20556;-72
2023/03/08 09:49:31;;;;;;;22.70;11.00;;;;;;;;;;4982712;28;20096;-70
2023/03/08 09:52:11;;;;;;;15.90;9.73;;;;;;;;;;4982634;28;20053;-70
2023/03/08 09:54:38;;;;;;;20.20;10.85;;;;;;;;;;4987432;28;20046;-70
2023/03/08 09:57:18;;;;;;;22.25;12.48;;;;;;;;;;4985926;28;20042;-68
2023/03/08 09:59:52;;;;;;;18.77;11.10;;;;;;;;;;4981017;28;20046;-69
2023/03/08 10:02:48;;;;;;;23.23;11.27;;;;;;;;;;4987074;28;20077;-70
2023/03/08 10:05:22;;;;;;;19.48;10.50;;;;;;;;;;4985144;28;20461;-69
2023/03/08 10:07:51;;;;;;;25.10;13.10;;;;;;;;;;4981921;28;20050;-71
2023/03/08 10:10:45;;;;;;;26.60;14.80;;;;;;;;;;4988930;28;20144;-71
2023/03/08 10:13:35;;;;;;;19.17;11.63;;;;;;;;;;4968045;28;20042;-70
2023/03/08 10:16:24;;;;;;;19.23;10.57;;;;;;;;;;4980882;28;20047;-70
2023/03/08 10:19:14;;;;;;;23.23;10.10;;;;;;;;;;4981857;28;20034;-70
2023/03/08 10:21:43;;;;;;;19.08;10.52;;;;;;;;;;4981548;28;20054;-70
2023/03/08 10:24:29;;;;;;;22.98;11.27;;;;;;;;;;4980285;28;20047;-70
2023/03/08 10:27:22;;;;;;;17.55;9.70;;;;;;;;;;4978314;28;20046;-70
2023/03/08 10:29:53;;;;;;;18.45;10.05;;;;;;;;;;4980869;28;20107;-71
2023/03/08 10:32:20;;;;;;;20.05;10.80;;;;;;;;;;4983521;28;20076;-71
2023/03/08 10:34:46;;;;;;;19.08;11.07;;;;;;;;;;4967803;28;20077;-70
2023/03/08 10:37:13;;;;;;;19.27;11.18;;;;;;;;;;4979181;28;20042;-70
2023/03/08 10:39:52;;;;;;;15.90;10.70;;;;;;;;;;4988182;28;20077;-71
2023/03/08 10:42:21;;;;;;;22.38;11.73;;;;;;;;;;4979567;28;20092;-70
2023/03/08 10:45:13;;;;;;;20.30;11.48;;;;;;;;;;4985123;28;20095;-70
2023/03/08 10:47:39;;;;;;;17.52;11.02;;;;;;;;;;4980943;28;20046;-71
2023/03/08 10:50:08;;;;;;;21.00;11.13;;;;;;;;;;4980065;28;20072;-72
2023/03/08 10:52:33;;;;;;;18.65;10.63;;;;;;;;;;4981013;28;20137;-71
2023/03/08 10:55:00;;;;;;;19.58;11.05;;;;;;;;;;4986357;28;20046;-70
2023/03/08 10:57:26;;;;;;;20.75;11.35;;;;;;;;;;4980925;28;20082;-68
2023/03/08 10:59:52;;;;;;;19.58;11.52;;;;;;;;;;4987224;28;20076;-69
2023/03/08 11:02:21;;;;;;;25.15;10.70;;;;;;;;;;4981276;28;20149;-68
2023/03/08 11:04:57;;;;;;;18.50;11.55;;;;;;;;;;4982468;28;20423;-69
2023/03/08 11:07:30;;;;;;;17.83;10.30;;;;;;;;;;4982879;28;20136;-69
2023/03/08 11:10:15;;;;;;;19.05;11.50;;;;;;;;;;4980153;28;20050;-69
2023/03/08 11:12:41;;;;;;;18.05;10.98;;;;;;;;;;4979094;28;20089;-70
2023/03/08 11:15:14;;;;;;;17.60;11.27;;;;;;;;;;4987632;28;20413;-70
2023/03/08 11:17:52;;;;;;;19.55;11.18;;;;;;;;;;4980618;28;20046;-68
2023/03/08 11:20:25;;;;;;;21.23;10.63;;;;;;;;;;4982061;28;20178;-69
2023/03/08 11:23:11;;;;;;;22.23;11.68;;;;;;;;;;4984192;28;20451;-68
2023/03/08 11:26:02;;;;;;;15.93;8.90;;;;;;;;;;4985555;28;20046;-68
2023/03/08 11:29:01;;;;;;;12.82;7.93;;;;;;;;;;4962238;28;20065;-70
2023/03/08 11:31:51;;;;;;;17.10;9.20;;;;;;;;;;4980628;28;20054;-70
2023/03/08 11:34:25;;;;;;;13.10;7.22;;;;;;;;;;4979221;28;20069;-69
2023/03/08 11:37:12;;;;;;;16.45;9.43;;;;;;;;;;4979963;28;20049;-69
2023/03/08 11:39:42;;;;;;;18.63;8.95;;;;;;;;;;4980425;28;20046;-70
2023/03/08 11:42:14;;;;;;;13.77;8.93;;;;;;;;;;4979018;28;20046;-70
2023/03/08 11:44:46;;;;;;;17.40;8.85;;;;;;;;;;4979818;28;20061;-70
2023/03/08 11:47:11;;;;;;;;;;;;;;;;;;4981591;28;20090;-69
2023/03/08 11:49:56;;;;;;;12.13;8.77;;;;;;;;;;4980795;28;19913;-69
2023/03/08 11:52:35;;;;;;;17.77;9.30;;;;;;;;;;4979193;28;20213;-67
2023/03/08 11:55:32;;;;;;;21.45;10.38;;;;;;;;;;4979750;28;20066;-69
2023/03/08 11:58:10;;;;;;;16.25;9.68;;;;;;;;;;4979628;28;20046;-71
2023/03/08 12:00:40;;;;;;;13.68;7.60;;;;;;;;;;4981310;28;20042;-70
2023/03/08 12:03:15;;;;;;;16.35;8.20;;;;;;;;;;4988041;28;20158;-69
2023/03/08 12:05:51;;;;;;;16.75;8.80;;;;;;;;;;4986052;28;20054;-67
2023/03/08 12:08:22;;;;;;;13.05;8.05;;;;;;;;;;4979497;28;20061;-67
2023/03/08 12:10:55;;;;;;;14.30;8.33;;;;;;;;;;4979819;28;20583;-69
2023/03/08 12:13:27;;;;;;;13.35;7.90;;;;;;;;;;4977959;28;20400;-69
2023/03/08 12:15:53;;;;;;;;;;;;;;;;;;4983906;28;20050;-67
2023/03/08 12:18:36;;;;;;;14.23;8.20;;;;;;;;;;4979482;28;19925;-70
2023/03/08 12:21:40;;;;;;;11.63;7.25;;;;;;;;;;4981043;28;20046;-69
2023/03/08 12:24:27;;;;;;;15.38;7.05;;;;;;;;;;4984438;28;20088;-67
2023/03/08 12:27:06;;;;;;;18.67;8.73;;;;;;;;;;4977989;28;20564;-70
2023/03/08 12:29:45;;;;;;;17.08;9.70;;;;;;;;;;4980135;28;20098;-69
2023/03/08 12:32:13;;;;;;;16.42;9.75;;;;;;;;;;4980504;28;20138;-68
2023/03/08 12:34:43;;;;;;;19.15;10.15;;;;;;;;;;4978269;28;20081;-69
2023/03/08 12:37:24;;;;;;;18.95;9.88;;;;;;;;;;4980952;28;20092;-71
2023/03/08 12:40:19;;;;;;;17.77;10.27;;;;;;;;;;4980230;28;20489;-69
2023/03/08 12:42:45;;;;;;;16.80;10.38;;;;;;;;;;4961811;28;20046;-70
2023/03/08 12:45:22;;;;;;;18.25;8.50;;;;;;;;;;4978465;28;20081;-69
2023/03/08 12:48:05;;;;;;;17.15;8.35;;;;;;;;;;4986378;28;20077;-70
2023/03/08 12:50:55;;;;;;;12.98;9.30;;;;;;;;;;4976241;28;20046;-69
2023/03/08 12:53:49;;;;;;;16.95;10.35;;;;;;;;;;4979669;28;20189;-69
2023/03/08 12:56:26;;;;;;;14.45;9.43;;;;;;;;;;4991969;28;20047;-70
2023/03/08 12:58:57;;;;;;;15.48;8.80;;;;;;;;;;4987962;28;20365;-69
2023/03/08 13:01:40;;;;;;;16.75;9.35;;;;;;;;;;4987869;28;20041;-70
2023/03/08 13:04:33;;;;;;;13.30;8.15;;;;;;;;;;4981166;28;20046;-69
2023/03/08 13:07:01;;;;;;;;;;;;;;;;;;4983170;28;20133;-70
2023/03/08 13:09:45;;;;;;;15.77;8.88;;;;;;;;;;4985693;28;19972;-70
2023/03/08 13:12:38;;;;;;;11.68;7.47;;;;;;;;;;4987211;28;20046;-67
2023/03/08 13:15:09;;;;;;;17.77;9.85;;;;;;;;;;4981922;28;20038;-68
2023/03/08 13:17:48;;;;;;;15.43;8.07;;;;;;;;;;4981639;28;20073;-70
2023/03/08 13:20:20;;;;;;;17.15;9.73;;;;;;;;;;4984765;28;20182;-70
2023/03/08 13:23:09;;;;;;;15.27;7.53;;;;;;;;;;4986225;28;20045;-70
2023/03/08 13:25:56;;;;;;;16.45;9.20;;;;;;;;;;4981670;28;20070;-70
2023/03/08 13:28:31;;;;;;;11.68;7.30;;;;;;;;;;4981097;28;20061;-66
2023/03/08 13:31:00;;;;;;;20.02;11.10;;;;;;;;;;4983878;28;20046;-67
2023/03/08 13:33:31;;;;;;;20.15;11.40;;;;;;;;;;4983046;28;20066;-69
2023/03/08 13:36:03;;;;;;;22.15;11.13;;;;;;;;;;4982215;28;20046;-70
2023/03/08 13:38:34;;;;;;;16.48;9.98;;;;;;;;;;4981269;28;20050;-70
2023/03/08 13:41:00;;;;;;;17.05;11.05;;;;;;;;;;4982476;28;20046;-68
2023/03/08 13:43:28;;;;;;;22.23;10.35;;;;;;;;;;4984537;28;20401;-69
2023/03/08 13:45:58;;;;;;;20.17;10.07;;;;;;;;;;4977569;28;20050;-69
2023/03/08 13:48:28;;;;;;;14.27;9.05;;;;;;;;;;4978079;28;20489;-69
2023/03/08 13:50:54;;;;;;;13.70;8.48;;;;;;;;;;4981995;28;20069;-68
2023/03/08 13:53:26;;;;;;;18.42;9.65;;;;;;;;;;4978194;28;20432;-66
2023/03/08 13:55:55;;;;;;;16.02;10.15;;;;;;;;;;4972565;28;20037;-67
2023/03/08 13:58:37;;;;;;;16.98;10.40;;;;;;;;;;4984914;28;20049;-69
2023/03/08 14:01:17;;;;;;;19.43;10.17;;;;;;;;;;4981230;28;20100;-69
2023/03/08 14:03:44;;;;;;;14.73;8.60;;;;;;;;;;4978517;28;20300;-70
2023/03/08 14:06:20;;;;;;;16.85;9.55;;;;;;;;;;4982776;28;20074;-69
2023/03/08 14:08:46;;;;;;;12.40;7.10;;;;;;;;;;4978831;28;20046;-69
2023/03/08 14:11:19;;;;;;;15.23;8.57;;;;;;;;;;4981855;28;20096;-68
2023/03/08 14:13:49;;;;;;;16.10;7.38;;;;;;;;;;4982658;28;20470;-69
2023/03/08 14:16:26;;;;;;;13.93;8.45;;;;;;;;;;4980381;28;20053;-70
2023/03/08 14:18:51;;;;;;;17.05;6.88;;;;;;;;;;4985402;28;20515;-66
2023/03/08 14:21:23;;;;;;;13.00;6.55;;;;;;;;;;4983029;28;20046;-69
2023/03/08 14:23:57;;;;;;;13.60;8.27;;;;;;;;;;4984808;28;20057;-66
2023/03/08 14:26:39;;;;;;;6.55;4.68;;;;;;;;;;4955388;28;20054;-69
2023/03/08 14:29:21;;;;;;;1.92;1.48;;;;;;;;;;4984758;28;20765;-70
2023/03/08 14:35:35;;;;;;;1.60;0.90;;;;;;;;;;4992030;28;20131;-69
2023/03/08 14:38:01;;;;;;;0.40;0.40;;;;;;;;;;4984655;28;20129;-68
2023/03/08 14:40:34;;;;;;;0.73;0.50;;;;;;;;;;4978895;28;20054;-69
2023/03/08 14:43:05;;;;;;;6.95;0.52;;;;;;;;;;4980600;28;20124;-69
2023/03/08 14:45:48;;;;;;;1.50;0.55;;;;;;;;;;4981917;28;20081;-67
2023/03/08 14:48:16;;;;;;;0.30;0.30;;;;;;;;;;4981583;28;20046;-69
2023/03/08 14:50:52;;;;;;;0.30;0.30;;;;;;;;;;4981119;28;20874;-69
2023/03/08 14:53:37;;;;;;;1.40;0.47;;;;;;;;;;4980473;28;20065;-69